N109A KLUK-KCLE
Flight info
| Callsign | N109A |
|---|---|
| Flight time | N/A |
| Altitude | 3500 |
| Route | VFR NORTHB |
| Aircraft | A109/L-VGD/C |
Departure
| Time | 2026-04-19 20:05 |
|---|---|
| Airport | Cincinnati Municipal Airport Lunken Field (KLUK) |
Arrival
| Time | N/A |
|---|---|
| Airport | Cleveland Hopkins International Airport (KCLE) |
| Time | Latitude | Longitude | Altitude | Speed | Heading |
|---|---|---|---|---|---|
| 2026-04-19 20:01 | 39.10678 | -84.42327 | 474 ft | 0 kts | 244° |
| 2026-04-19 20:04 | 39.10678 | -84.42328 | 476 ft | 1 kts | 239° |
| 2026-04-19 20:04 | 39.10670 | -84.42339 | 499 ft | 5 kts | 146° |
| 2026-04-19 20:05 | 39.10656 | -84.42217 | 622 ft | 20 kts | 48° |
| 2026-04-19 20:05 | 39.10772 | -84.41968 | 806 ft | 50 kts | 50° |
| 2026-04-19 20:05 | 39.11110 | -84.41560 | 1071 ft | 86 kts | 45° |
| 2026-04-19 20:05 | 39.11551 | -84.40913 | 1424 ft | 105 kts | 36° |
| 2026-04-19 20:06 | 39.12068 | -84.40162 | 1780 ft | 118 kts | 39° |
| 2026-04-19 20:06 | 39.12616 | -84.39360 | 2156 ft | 122 kts | 36° |
| 2026-04-19 20:06 | 39.13182 | -84.38612 | 2173 ft | 103 kts | 31° |
| 2026-04-19 20:06 | 39.13685 | -84.37912 | 1931 ft | 128 kts | 43° |
| 2026-04-19 20:07 | 39.14328 | -84.37015 | 2057 ft | 133 kts | 38° |
| 2026-04-19 20:07 | 39.14953 | -84.36237 | 2228 ft | 118 kts | 25° |
| 2026-04-19 20:07 | 39.15632 | -84.35586 | 2398 ft | 127 kts | 24° |
| 2026-04-19 20:07 | 39.16392 | -84.34900 | 2582 ft | 136 kts | 24° |
| 2026-04-19 20:08 | 39.17166 | -84.34206 | 2751 ft | 134 kts | 23° |
| 2026-04-19 20:08 | 39.17925 | -84.33509 | 2770 ft | 138 kts | 26° |
| 2026-04-19 20:08 | 39.18784 | -84.32764 | 2724 ft | 155 kts | 21° |
| 2026-04-19 20:08 | 39.19710 | -84.32001 | 2709 ft | 161 kts | 23° |
| 2026-04-19 20:09 | 39.20665 | -84.31207 | 2709 ft | 163 kts | 22° |
| 2026-04-19 20:09 | 39.21622 | -84.30411 | 2703 ft | 164 kts | 23° |
| 2026-04-19 20:09 | 39.22588 | -84.29614 | 2697 ft | 163 kts | 24° |
| 2026-04-19 20:09 | 39.23548 | -84.28828 | 2698 ft | 164 kts | 23° |
| 2026-04-19 20:10 | 39.24509 | -84.28037 | 2694 ft | 164 kts | 23° |
| 2026-04-19 20:10 | 39.25474 | -84.27235 | 2689 ft | 165 kts | 24° |
| 2026-04-19 20:10 | 39.26432 | -84.26430 | 2687 ft | 164 kts | 23° |
| 2026-04-19 20:10 | 39.27396 | -84.25617 | 2685 ft | 163 kts | 23° |
| 2026-04-19 20:11 | 39.28341 | -84.24828 | 2682 ft | 162 kts | 22° |
| 2026-04-19 20:11 | 39.29294 | -84.24028 | 2683 ft | 162 kts | 23° |
| 2026-04-19 20:11 | 39.30241 | -84.23238 | 2678 ft | 161 kts | 24° |
| 2026-04-19 20:11 | 39.31187 | -84.22450 | 2668 ft | 161 kts | 24° |
| 2026-04-19 20:12 | 39.32139 | -84.21655 | 2669 ft | 163 kts | 23° |
| 2026-04-19 20:12 | 39.33089 | -84.20859 | 2673 ft | 163 kts | 24° |
| 2026-04-19 20:12 | 39.34047 | -84.20071 | 2667 ft | 162 kts | 24° |
| 2026-04-19 20:12 | 39.35003 | -84.19270 | 2668 ft | 163 kts | 23° |
| 2026-04-19 20:13 | 39.35958 | -84.18478 | 2665 ft | 163 kts | 24° |
| 2026-04-19 20:13 | 39.36924 | -84.17687 | 2659 ft | 163 kts | 23° |
| 2026-04-19 20:13 | 39.37870 | -84.16897 | 2662 ft | 164 kts | 23° |
| 2026-04-19 20:13 | 39.38834 | -84.16101 | 2662 ft | 164 kts | 23° |
| 2026-04-19 20:14 | 39.39802 | -84.15294 | 2659 ft | 164 kts | 25° |
| 2026-04-19 20:14 | 39.40764 | -84.14500 | 2661 ft | 163 kts | 24° |
| 2026-04-19 20:14 | 39.41720 | -84.13712 | 2663 ft | 163 kts | 23° |
| 2026-04-19 20:14 | 39.42684 | -84.12932 | 2661 ft | 162 kts | 24° |
| 2026-04-19 20:15 | 39.43640 | -84.12158 | 2661 ft | 163 kts | 22° |
| 2026-04-19 20:15 | 39.44597 | -84.11382 | 2662 ft | 164 kts | 21° |
| 2026-04-19 20:15 | 39.45570 | -84.10577 | 2670 ft | 165 kts | 23° |
| 2026-04-19 20:15 | 39.46547 | -84.09766 | 2673 ft | 166 kts | 23° |
| 2026-04-19 20:16 | 39.47523 | -84.08970 | 2666 ft | 166 kts | 22° |
| 2026-04-19 20:16 | 39.48498 | -84.08186 | 2665 ft | 165 kts | 22° |
| 2026-04-19 20:16 | 39.49472 | -84.07370 | 2662 ft | 166 kts | 24° |
| 2026-04-19 20:16 | 39.50435 | -84.06564 | 2659 ft | 165 kts | 24° |
| 2026-04-19 20:17 | 39.51408 | -84.05763 | 2656 ft | 166 kts | 25° |
| 2026-04-19 20:17 | 39.52383 | -84.04969 | 2662 ft | 166 kts | 23° |
| 2026-04-19 20:17 | 39.53366 | -84.04150 | 2669 ft | 166 kts | 22° |
| 2026-04-19 20:17 | 39.54330 | -84.03348 | 2664 ft | 166 kts | 23° |
| 2026-04-19 20:18 | 39.55316 | -84.02535 | 2667 ft | 166 kts | 24° |
| 2026-04-19 20:18 | 39.56289 | -84.01746 | 2668 ft | 165 kts | 23° |
| 2026-04-19 20:18 | 39.57259 | -84.00974 | 2664 ft | 164 kts | 22° |
| 2026-04-19 20:18 | 39.58234 | -84.00177 | 2667 ft | 164 kts | 24° |
| 2026-04-19 20:19 | 39.59204 | -83.99390 | 2668 ft | 165 kts | 21° |
| 2026-04-19 20:19 | 39.60194 | -83.98586 | 2669 ft | 166 kts | 22° |
| 2026-04-19 20:19 | 39.61165 | -83.97802 | 2669 ft | 165 kts | 23° |
| 2026-04-19 20:19 | 39.62143 | -83.97022 | 2668 ft | 165 kts | 22° |
| 2026-04-19 20:20 | 39.63130 | -83.96220 | 2667 ft | 165 kts | 23° |
| 2026-04-19 20:20 | 39.64103 | -83.95441 | 2662 ft | 164 kts | 23° |
| 2026-04-19 20:20 | 39.65078 | -83.94652 | 2660 ft | 165 kts | 24° |
| 2026-04-19 20:20 | 39.66056 | -83.93855 | 2662 ft | 165 kts | 24° |
| 2026-04-19 20:21 | 39.67017 | -83.93062 | 2662 ft | 165 kts | 24° |
| 2026-04-19 20:21 | 39.67985 | -83.92259 | 2664 ft | 164 kts | 24° |
| 2026-04-19 20:21 | 39.68963 | -83.91463 | 2666 ft | 164 kts | 24° |
| 2026-04-19 20:21 | 39.69925 | -83.90668 | 2663 ft | 165 kts | 24° |
| 2026-04-19 20:22 | 39.70903 | -83.89862 | 2661 ft | 166 kts | 23° |
| 2026-04-19 20:22 | 39.71898 | -83.89126 | 2662 ft | 164 kts | 15° |
| 2026-04-19 20:22 | 39.72958 | -83.88573 | 2666 ft | 163 kts | 12° |
| 2026-04-19 20:22 | 39.74014 | -83.88023 | 2597 ft | 163 kts | 12° |
| 2026-04-19 20:23 | 39.75071 | -83.87483 | 2548 ft | 164 kts | 13° |
| 2026-04-19 20:23 | 39.76131 | -83.86937 | 2524 ft | 164 kts | 13° |
| 2026-04-19 20:23 | 39.77195 | -83.86396 | 2516 ft | 163 kts | 13° |
| 2026-04-19 20:23 | 39.78258 | -83.85847 | 2511 ft | 163 kts | 12° |
| 2026-04-19 20:24 | 39.79314 | -83.85292 | 2319 ft | 161 kts | 12° |
| 2026-04-19 20:24 | 39.80294 | -83.84793 | 2128 ft | 138 kts | 12° |
| 2026-04-19 20:24 | 39.81114 | -83.84446 | 1944 ft | 115 kts | 2° |
| 2026-04-19 20:24 | 39.81851 | -83.84195 | 1749 ft | 100 kts | 1° |
| 2026-04-19 20:25 | 39.82438 | -83.83962 | 1677 ft | 76 kts | 8° |
| 2026-04-19 20:25 | 39.82882 | -83.83769 | 1468 ft | 55 kts | 358° |
| 2026-04-19 20:25 | 39.83207 | -83.83717 | 1426 ft | 45 kts | 351° |
| 2026-04-19 20:25 | 39.83558 | -83.83708 | 1395 ft | 52 kts | 343° |
| 2026-04-19 20:26 | 39.83901 | -83.83678 | 1346 ft | 47 kts | 341° |
| 2026-04-19 20:26 | 39.84222 | -83.83617 | 1304 ft | 44 kts | 352° |
| 2026-04-19 20:26 | 39.84473 | -83.83565 | 1168 ft | 26 kts | 337° |
| 2026-04-19 20:26 | 39.84567 | -83.83560 | 1068 ft | 6 kts | 337° |
| 2026-04-19 20:27 | 39.84606 | -83.83570 | 1048 ft | 2 kts | 324° |
| 2026-04-19 20:27 | 39.84629 | -83.83591 | 1048 ft | 4 kts | 322° |
| 2026-04-19 20:27 | 39.84657 | -83.83621 | 1048 ft | 4 kts | 312° |
| 2026-04-19 20:27 | 39.84678 | -83.83646 | 1048 ft | 4 kts | 327° |
| 2026-04-19 20:28 | 39.84701 | -83.83662 | 1048 ft | 3 kts | 335° |
| 2026-04-19 20:28 | 39.84719 | -83.83675 | 1048 ft | 2 kts | 323° |
| 2026-04-19 20:28 | 39.84732 | -83.83687 | 1048 ft | 3 kts | 320° |
| 2026-04-19 20:28 | 39.84761 | -83.83716 | 1048 ft | 6 kts | 321° |
| 2026-04-19 20:29 | 39.84776 | -83.83755 | 1048 ft | 3 kts | 277° |
| 2026-04-19 20:29 | 39.84778 | -83.83781 | 1048 ft | 2 kts | 272° |
| 2026-04-19 20:29 | 39.84778 | -83.83803 | 1048 ft | 2 kts | 264° |
| 2026-04-19 20:30 | 39.84769 | -83.83801 | 1048 ft | 0 kts | 99° |
| 2026-04-19 20:32 | 39.84769 | -83.83800 | 1048 ft | 0 kts | 102° |
| 2026-04-19 20:32 | 39.84769 | -83.83794 | 1048 ft | 0 kts | 147° |